Time;durP1;ratioP1;P1;durP2;ratioP2;P2;SDS_P1;SDS_P2;PMS_P1;PMS_P2;Temp;Humidity;BMP_temperature;BMP_pressure;BME280_temperature;BME280_humidity;BME280_pressure;Samples;Min_cycle;Max_cycle;Signal;HPM_P1;HPM_P2
2021/12/07 05:51:20;;;;;;;;;;;;;;;2.72;83.78;96916.31;5026196;22;1840190;-69
2021/12/07 05:53:22;;;;;;;;;;;;;;;2.76;83.86;96917.66;5102122;23;5819;-68
2021/12/07 05:55:25;;;;;;;;;;;;;;;2.76;83.52;96930.72;5131677;23;6275;-68
2021/12/07 05:57:26;;;;;;;;;;;;;;;2.76;83.62;96928.13;5130864;23;5745;-68
2021/12/07 05:59:28;;;;;;;;;;;;;;;2.66;83.87;96922.09;5131106;23;5664;-68
2021/12/07 06:01:30;;;;;;;;;;;;;;;2.43;84.44;96923.38;5105225;23;5918;-67
2021/12/07 06:03:33;;;;;;;;;;;;;;;2.52;84.70;96920.75;5104404;23;5828;-67
2021/12/07 06:05:37;;;;;;;;;;;;;;;2.64;83.92;96926.63;5105395;23;5875;-67
2021/12/07 06:07:39;;;;;;;;;;;;;;;2.73;83.95;96924.97;5131292;23;5674;-68
2021/12/07 06:09:41;;;;;;;;;;;;;;;2.68;83.42;96925.38;5105800;23;5832;-67
2021/12/07 06:11:44;;;;;;;;;;;;;;;2.77;83.68;96934.16;5131565;23;5763;-68
2021/12/07 06:13:47;;;;;;;;;;;;;;;2.66;83.87;96924.69;5129101;23;5785;-68
2021/12/07 06:15:49;;;;;;;;;;;;;;;2.80;83.56;96923.41;5096594;23;5264;-69
2021/12/07 06:17:52;;;;;;;;;;;;;;;2.87;83.38;96920.13;5125235;23;7671;-68
2021/12/07 06:19:54;;;;;;;;;;;;;;;2.91;83.09;96915.41;5125417;23;5650;-68
2021/12/07 06:21:55;;;;;;;;;;;;;;;2.98;83.00;96911.28;5125034;23;5742;-67
2021/12/07 06:23:57;;;;;;;;;;;;;;;3.00;83.13;96911.97;5099303;23;5812;-67
2021/12/07 06:25:59;;;;;;;;;;;;;;;3.10;83.00;96914.53;5098905;23;5815;-67
2021/12/07 06:28:00;;;;;;;;;;;;;;;3.14;82.90;96908.03;5124668;23;5676;-67
2021/12/07 06:30:03;;;;;;;;;;;;;;;3.02;82.54;96914.41;5075163;23;5052;-67
2021/12/07 06:32:06;;;;;;;;;;;;;;;2.89;83.06;96912.13;5126251;23;7753;-67
2021/12/07 06:34:10;;;;;;;;;;;;;;;2.84;83.53;96920.41;5100215;23;5831;-67
2021/12/07 06:36:13;;;;;;;;;;;;;;;3.05;83.21;96921.97;5098561;23;5142;-67
2021/12/07 06:38:18;;;;;;;;;;;;;;;3.14;82.51;96921.94;5124688;23;5654;-70
2021/12/07 06:40:19;;;;;;;;;;;;;;;3.15;82.56;96917.53;5124182;23;5654;-71
2021/12/07 06:42:21;;;;;;;;;;;;;;;3.11;82.66;96932.69;5124623;23;5666;-70
2021/12/07 06:44:22;;;;;;;;;;;;;;;3.10;83.13;96928.41;5097985;23;5815;-71
2021/12/07 06:46:24;;;;;;;;;;;;;;;3.07;83.20;96930.50;5072204;23;5951;-71
2021/12/07 06:48:26;;;;;;;;;;;;;;;3.15;83.02;96939.25;5125559;23;6386;-71
2021/12/07 06:50:28;;;;;;;;;;;;;;;3.14;83.35;96942.81;5125805;23;5875;-71
2021/12/07 06:52:29;;;;;;;;;;;;;;;3.18;83.11;96938.16;5125096;23;5673;-71
2021/12/07 06:54:31;;;;;;;;;;;;;;;3.20;83.45;96933.63;5122896;23;5735;-71
2021/12/07 06:56:33;;;;;;;;;;;;;;;3.03;84.17;96934.34;5097992;23;5923;-71
2021/12/07 06:58:35;;;;;;;;;;;;;;;2.98;84.76;96921.72;5124097;23;5686;-71
2021/12/07 07:00:37;;;;;;;;;;;;;;;3.01;85.27;96928.44;5098307;23;6005;-71
2021/12/07 07:02:39;;;;;;;;;;;;;;;3.17;84.64;96926.03;5125198;23;5655;-71
2021/12/07 07:04:41;;;;;;;;;;;;;;;3.22;84.09;96922.03;5124853;23;6031;-71
2021/12/07 07:06:43;;;;;;;;;;;;;;;3.21;83.60;96923.00;5125740;23;7645;-70
2021/12/07 07:08:45;;;;;;;;;;;;;;;3.23;83.53;96925.47;5125578;23;5666;-70
2021/12/07 07:10:47;;;;;;;;;;;;;;;3.28;83.64;96931.06;5125069;23;5740;-71
2021/12/07 07:12:49;;;;;;;;;;;;;;;3.35;83.59;96916.47;5125002;23;5647;-71
2021/12/07 07:14:51;;;;;;;;;;;;;;;3.41;83.39;96921.13;5124454;23;5791;-71
2021/12/07 07:16:52;;;;;;;;;;;;;;;3.36;82.89;96925.97;5099419;23;5812;-71
2021/12/07 07:18:55;;;;;;;;;;;;;;;3.28;83.85;96925.84;5125743;23;5799;-71
2021/12/07 07:20:56;;;;;;;;;;;;;;;3.35;84.08;96932.16;5124938;23;5826;-71
2021/12/07 07:22:58;;;;;;;;;;;;;;;3.42;83.89;96938.47;5098693;23;5819;-71
2021/12/07 07:25:00;;;;;;;;;;;;;;;3.49;83.59;96942.13;5124864;23;5750;-71
2021/12/07 07:27:03;;;;;;;;;;;;;;;3.57;83.66;96937.97;5123784;23;5679;-71
2021/12/07 07:29:04;;;;;;;;;;;;;;;3.58;83.62;96940.44;5125465;23;5679;-71
2021/12/07 07:31:08;;;;;;;;;;;;;;;3.57;83.84;96936.19;5099092;23;5823;-71
2021/12/07 07:33:10;;;;;;;;;;;;;;;3.51;84.33;96939.34;5124865;23;5651;-71
2021/12/07 07:35:13;;;;;;;;;;;;;;;3.56;84.17;96944.16;5096588;23;5814;-71
2021/12/07 07:37:15;;;;;;;;;;;;;;;3.58;83.97;96942.22;5094518;23;6037;-71
2021/12/07 07:39:17;;;;;;;;;;;;;;;3.59;84.13;96942.06;5094750;23;6055;-71
2021/12/07 07:41:18;;;;;;;;;;;;;;;3.52;84.26;96950.66;5123479;23;6377;-71
2021/12/07 07:43:21;;;;;;;;;;;;;;;3.48;84.08;96953.53;5098286;23;5918;-71
2021/12/07 07:45:22;;;;;;;;;;;;;;;3.42;83.85;96946.31;5124734;23;5655;-70
2021/12/07 07:47:24;;;;;;;;;;;;;;;3.38;83.53;96958.00;5124512;23;5660;-71
2021/12/07 07:49:25;;;;;;;;;;;;;;;3.36;83.82;96951.28;5125412;23;5647;-70
2021/12/07 07:51:27;;;;;;;;;;;;;;;3.35;84.02;96949.63;5098355;23;5874;-71
2021/12/07 07:53:28;;;;;;;;;;;;;;;3.35;83.66;96955.69;5098881;23;5920;-70
2021/12/07 07:55:30;;;;;;;;;;;;;;;3.35;83.30;96950.44;5099918;23;5766;-71
2021/12/07 07:57:32;;;;;;;;;;;;;;;3.38;83.46;96944.94;5098947;23;5819;-70
2021/12/07 07:59:36;;;;;;;;;;;;;;;3.34;83.73;96940.97;5100241;23;5798;-71
2021/12/07 08:01:37;;;;;;;;;;;;;;;3.43;83.56;96937.50;5100718;23;5857;-70
2021/12/07 08:03:39;;;;;;;;;;;;;;;3.37;83.28;96943.28;5098226;23;6772;-70
2021/12/07 08:05:41;;;;;;;;;;;;;;;3.40;83.55;96932.56;5097613;23;6588;-70
2021/12/07 08:07:47;;;;;;;;;;;;;;;3.37;83.56;96930.22;5100741;23;5778;-70
2021/12/07 08:09:48;;;;;;;;;;;;;;;3.39;83.44;96935.28;5100315;23;5790;-71
2021/12/07 08:11:50;;;;;;;;;;;;;;;3.34;83.72;96948.81;5100314;23;5789;-71
2021/12/07 08:13:52;;;;;;;;;;;;;;;3.36;83.60;96933.81;5099409;23;5766;-70
2021/12/07 08:15:54;;;;;;;;;;;;;;;3.34;83.58;96940.16;5097389;23;5910;-70
2021/12/07 08:17:56;;;;;;;;;;;;;;;3.37;83.75;96937.22;5074962;23;5836;-71
2021/12/07 08:19:59;;;;;;;;;;;;;;;3.38;84.19;96938.88;5100453;23;5835;-70
2021/12/07 08:22:00;;;;;;;;;;;;;;;3.38;84.08;96937.09;5100419;23;5767;-69
2021/12/07 08:24:02;;;;;;;;;;;;;;;3.33;85.07;96941.94;5099232;23;6456;-69
2021/12/07 08:26:06;;;;;;;;;;;;;;;3.32;85.53;96935.06;5098971;23;5812;-70
2021/12/07 08:28:08;;;;;;;;;;;;;;;3.34;85.57;96933.13;5075781;23;5843;-70
2021/12/07 08:30:12;;;;;;;;;;;;;;;3.47;85.31;96938.84;5099372;23;5823;-70
2021/12/07 08:32:15;;;;;;;;;;;;;;;3.54;84.53;96940.88;5099583;23;5823;-70
2021/12/07 08:34:17;;;;;;;;;;;;;;;3.53;84.69;96936.63;5101536;23;5861;-70
2021/12/07 08:36:19;;;;;;;;;;;;;;;3.59;84.80;96942.06;5102520;23;5771;-70
2021/12/07 08:38:20;;;;;;;;;;;;;;;3.61;84.87;96939.31;5102904;23;5969;-71
2021/12/07 08:40:25;;;;;;;;;;;;;;;3.63;85.26;96935.59;5103371;23;5767;-71
2021/12/07 08:42:27;;;;;;;;;;;;;;;3.60;85.50;96929.81;5103236;23;5755;-71
2021/12/07 08:44:29;;;;;;;;;;;;;;;3.66;85.38;96937.09;5101268;23;5828;-71
2021/12/07 08:46:30;;;;;;;;;;;;;;;3.66;85.06;96935.31;5102677;23;5767;-71
2021/12/07 08:48:34;;;;;;;;;;;;;;;3.58;85.32;96940.44;5103256;23;5771;-70
2021/12/07 08:50:36;;;;;;;;;;;;;;;3.71;84.62;96940.09;5101556;23;5819;-71
2021/12/07 08:52:38;;;;;;;;;;;;;;;3.76;84.84;96937.88;5101395;23;6080;-71
2021/12/07 09:01:27;;;;;;;;;;;;;;;3.99;84.25;96939.09;5101610;23;5823;-70
2021/12/07 09:03:29;;;;;;;;;;;;;;;4.00;84.53;96935.50;5101078;23;5879;-70
2021/12/07 09:05:31;;;;;;;;;;;;;;;4.02;84.30;96930.94;5102064;23;5766;-70
2021/12/07 09:07:34;;;;;;;;;;;;;;;4.05;84.02;96930.63;5101631;23;5778;-70
2021/12/07 09:09:36;;;;;;;;;;;;;;;4.07;83.77;96928.69;5101126;23;5815;-70
2021/12/07 09:11:39;;;;;;;;;;;;;;;4.07;83.58;96928.69;5102401;23;5882;-72
2021/12/07 09:13:41;;;;;;;;;;;;;;;4.06;84.01;96932.28;5103072;23;5847;-71
2021/12/07 09:15:43;;;;;;;;;;;;;;;4.08;84.33;96925.13;5102011;23;5758;-70
2021/12/07 09:17:44;;;;;;;;;;;;;;;4.13;84.02;96923.84;5102042;23;5763;-70
2021/12/07 09:19:46;;;;;;;;;;;;;;;3.96;84.90;96931.50;5101875;23;5849;-70
2021/12/07 09:21:48;;;;;;;;;;;;;;;3.95;84.48;96926.44;5101217;23;5775;-70
2021/12/07 09:23:50;;;;;;;;;;;;;;;3.88;84.99;96936.69;5100599;23;5823;-70
2021/12/07 09:25:53;;;;;;;;;;;;;;;3.91;85.03;96925.09;5102097;23;5762;-70
2021/12/07 09:27:55;;;;;;;;;;;;;;;4.01;84.48;96926.69;5101701;23;5036;-71
2021/12/07 09:29:56;;;;;;;;;;;;;;;3.82;85.15;96932.03;5102678;23;5866;-71
2021/12/07 09:31:58;;;;;;;;;;;;;;;3.99;84.56;96922.56;5101246;23;5875;-71
2021/12/07 09:34:00;;;;;;;;;;;;;;;4.07;84.08;96928.69;5102680;23;5774;-71
2021/12/07 09:36:03;;;;;;;;;;;;;;;4.15;83.72;96924.50;5100787;23;5815;-71
2021/12/07 09:38:05;;;;;;;;;;;;;;;4.19;83.60;96916.22;5100583;23;5923;-71
2021/12/07 09:40:12;;;;;;;;;;;;;;;4.25;83.45;96923.47;5101531;23;5826;-71
2021/12/07 09:42:13;;;;;;;;;;;;;;;4.29;83.55;96910.88;5102133;23;6840;-71
2021/12/07 09:44:15;;;;;;;;;;;;;;;4.32;83.78;96908.00;5102107;23;5905;-70
2021/12/07 09:46:17;;;;;;;;;;;;;;;4.31;83.94;96912.41;5102390;23;5766;-71
2021/12/07 09:48:19;;;;;;;;;;;;;;;4.49;83.10;96904.50;5103062;23;5850;-71
2021/12/07 09:50:21;;;;;;;;;;;;;;;4.48;82.96;96900.25;5102614;23;5915;-71
2021/12/07 09:52:24;;;;;;;;;;;;;;;4.47;82.56;96903.84;5119624;23;6304;-70
2021/12/07 09:54:26;;;;;;;;;;;;;;;4.39;82.14;96895.91;5101539;23;5804;-71
2021/12/07 09:56:27;;;;;;;;;;;;;;;4.27;82.57;96889.28;5128138;23;5752;-70
2021/12/07 09:58:30;;;;;;;;;;;;;;;4.15;83.63;96874.78;5128283;23;5702;-70
2021/12/07 10:00:34;;;;;;;;;;;;;;;4.30;83.14;96870.66;5128313;23;5651;-71
2021/12/07 10:02:36;;;;;;;;;;;;;;;4.35;82.88;96871.84;5128791;23;5659;-71
2021/12/07 10:04:45;;;;;;;;;;;;;;;4.26;82.75;96864.09;5127994;23;5651;-71
2021/12/07 10:06:47;;;;;;;;;;;;;;;4.28;82.92;96864.75;5129538;23;5651;-71
2021/12/07 10:08:49;;;;;;;;;;;;;;;4.34;82.85;96857.13;5101560;23;5926;-71
2021/12/07 10:10:55;;;;;;;;;;;;;;;4.44;82.69;96851.81;5101131;23;5808;-71
2021/12/07 10:12:58;;;;;;;;;;;;;;;4.38;83.01;96850.59;5078378;23;6446;-71
2021/12/07 10:15:06;;;;;;;;;;;;;;;4.52;82.38;96836.13;5128282;23;5675;-71
2021/12/07 10:17:09;;;;;;;;;;;;;;;4.49;82.52;96831.22;5128509;23;5656;-70
2021/12/07 10:19:11;;;;;;;;;;;;;;;4.42;82.53;96819.72;5102361;23;5812;-71
2021/12/07 10:21:23;;;;;;;;;;;;;;;4.52;82.42;96812.56;5128427;23;5667;-71
2021/12/07 10:23:49;;;;;;;;;;;;;;;4.57;82.24;96806.88;5127964;23;5783;-71
2021/12/07 10:25:56;;;;;;;;;;;;;;;4.59;81.49;96800.50;5101848;23;5827;-71
2021/12/07 10:27:58;;;;;;;;;;;;;;;4.61;81.50;96800.34;5101536;23;5926;-71
2021/12/07 10:30:03;;;;;;;;;;;;;;;4.56;81.56;96794.78;5129191;23;5722;-71
2021/12/07 10:32:07;;;;;;;;;;;;;;;4.62;81.42;96794.94;5128625;23;5679;-71
2021/12/07 10:34:15;;;;;;;;;;;;;;;4.57;80.50;96792.00;5101345;23;5864;-71
2021/12/07 10:36:19;;;;;;;;;;;;;;;4.60;80.67;96778.56;5128537;23;5671;-70
2021/12/07 10:38:20;;;;;;;;;;;;;;;4.47;80.12;96770.34;5101360;23;5815;-71
2021/12/07 10:40:22;;;;;;;;;;;;;;;4.59;80.35;96773.50;5078243;23;5895;-71
2021/12/07 10:42:29;;;;;;;;;;;;;;;4.68;80.11;96770.78;5128065;23;5658;-70
2021/12/07 10:44:39;;;;;;;;;;;;;;;4.80;79.85;96773.09;5078283;23;5829;-71
2021/12/07 10:47:12;;;;;;;;;;;;;;;4.77;80.14;96757.72;5128358;23;5651;-71
2021/12/07 10:49:38;;;;;;;;;;;;;;;4.80;80.75;96752.97;5105382;23;5713;-71
2021/12/07 10:51:53;;;;;;;;;;;;;;;4.80;80.39;96749.53;5128771;23;5846;-71
2021/12/07 10:53:55;;;;;;;;;;;;;;;4.77;80.64;96747.25;5129211;23;5659;-71
2021/12/07 10:55:56;;;;;;;;;;;;;;;4.67;81.16;96735.09;5101452;23;5800;-71
2021/12/07 10:58:00;;;;;;;;;;;;;;;4.27;80.84;96732.25;5127222;23;5750;-71
2021/12/07 11:00:25;;;;;;;;;;;;;;;4.25;81.12;96742.91;5126634;23;5650;-69
2021/12/07 11:02:33;;;;;;;;;;;;;;;4.50;80.90;96737.78;5127873;23;5758;-69
2021/12/07 11:04:35;;;;;;;;;;;;;;;4.64;79.94;96729.31;5126571;23;5778;-69
2021/12/07 11:07:02;;;;;;;;;;;;;;;4.71;79.86;96719.88;5125757;23;6402;-70
2021/12/07 11:09:06;;;;;;;;;;;;;;;4.72;79.63;96712.84;5100595;23;5896;-72
2021/12/07 11:11:08;;;;;;;;;;;;;;;4.64;79.39;96703.13;5101490;23;5819;-71
2021/12/07 11:13:17;;;;;;;;;;;;;;;4.55;78.89;96699.69;5076951;23;5059;-71
2021/12/07 11:15:28;;;;;;;;;;;;;;;4.56;79.49;96696.09;5126276;23;5750;-72
2021/12/07 11:17:33;;;;;;;;;;;;;;;4.61;79.81;96688.56;5127894;23;5747;-71
2021/12/07 11:19:35;;;;;;;;;;;;;;;4.60;79.49;96676.47;5127794;23;5681;-71
2021/12/07 11:21:43;;;;;;;;;;;;;;;4.62;79.77;96674.50;5102158;23;5983;-72
2021/12/07 11:23:49;;;;;;;;;;;;;;;4.54;79.83;96674.50;5128247;23;6737;-72
2021/12/07 11:30:27;;;;;;;;;;;;;;;4.63;80.16;96657.00;5101752;23;5924;-71
2021/12/07 11:32:29;;;;;;;;;;;;;;;4.59;79.25;96653.88;5128350;23;5663;-71
2021/12/07 11:34:39;;;;;;;;;;;;;;;4.60;79.81;96626.72;5101832;23;6441;-71
2021/12/07 11:36:43;;;;;;;;;;;;;;;4.42;80.74;96633.03;5127881;23;5663;-72
2021/12/07 11:38:45;;;;;;;;;;;;;;;4.54;80.41;96618.69;5128047;23;5651;-72
2021/12/07 11:40:46;;;;;;;;;;;;;;;4.64;79.80;96614.13;5127757;23;5655;-71
2021/12/07 11:42:48;;;;;;;;;;;;;;;4.61;79.80;96610.03;5102104;23;5819;-70
2021/12/07 11:44:58;;;;;;;;;;;;;;;4.64;79.41;96614.97;5101648;23;5999;-70
2021/12/07 11:47:02;;;;;;;;;;;;;;;4.65;79.74;96603.50;5127777;23;5667;-71
2021/12/07 11:49:31;;;;;;;;;;;;;;;4.65;79.18;96594.84;5102136;23;5804;-70
2021/12/07 11:51:33;;;;;;;;;;;;;;;4.64;79.38;96593.16;5097451;23;5916;-71
2021/12/07 11:53:35;;;;;;;;;;;;;;;4.70;79.08;96586.47;5077154;23;5848;-71
2021/12/07 11:55:42;;;;;;;;;;;;;;;4.78;79.01;96583.88;5103020;23;5774;-71
2021/12/07 11:57:46;;;;;;;;;;;;;;;4.82;78.97;96575.53;5101517;23;5812;-71
2021/12/07 11:59:49;;;;;;;;;;;;;;;4.47;79.30;96576.63;5100721;23;5778;-68
2021/12/07 12:01:52;;;;;;;;;;;;;;;4.56;80.22;96565.19;5101263;23;5766;-68
2021/12/07 12:03:54;;;;;;;;;;;;;;;4.70;80.05;96562.91;5100921;23;5902;-68
2021/12/07 12:05:56;;;;;;;;;;;;;;;4.80;80.02;96553.09;5101860;23;5786;-69
2021/12/07 12:08:08;;;;;;;;;;;;;;;4.82;79.64;96544.09;5102103;23;5864;-69
2021/12/07 12:10:12;;;;;;;;;;;;;;;4.84;79.74;96538.69;5077084;23;5820;-68
2021/12/07 12:12:29;;;;;;;;;;;;;;;4.77;79.36;96530.69;5099024;23;5812;-66
2021/12/07 12:15:14;;;;;;;;;;;;;;;4.68;80.18;96526.41;5098074;23;5916;-67
2021/12/07 12:17:34;;;;;;;;;;;;;;;4.65;80.01;96522.34;5101020;23;5763;-67
2021/12/07 12:20:04;;;;;;;;;;;;;;;4.89;79.86;96529.38;5099178;23;5827;-66
2021/12/07 12:22:30;;;;;;;;;;;;;;;4.91;79.11;96510.88;5047101;23;5815;-67
2021/12/07 12:24:47;;;;;;;;;;;;;;;5.07;79.41;96512.66;5099794;23;5819;-67
2021/12/07 12:26:49;;;;;;;;;;;;;;;5.01;79.21;96495.81;5074682;23;5933;-68
2021/12/07 12:28:53;;;;;;;;;;;;;;;4.93;79.41;96486.16;5099969;23;5836;-68
2021/12/07 12:30:55;;;;;;;;;;;;;;;5.10;79.13;96494.81;5099271;23;5842;-67
2021/12/07 12:33:10;;;;;;;;;;;;;;;5.19;78.86;96482.50;5093410;23;5931;-68
2021/12/07 12:35:13;;;;;;;;;;;;;;;5.22;78.71;96480.38;5100461;23;5886;-68
2021/12/07 12:37:19;;;;;;;;;;;;;;;5.23;78.40;96474.16;5099052;23;5058;-67
2021/12/07 12:39:40;;;;;;;;;;;;;;;5.22;78.52;96472.53;5101163;23;5842;-68
2021/12/07 12:41:42;;;;;;;;;;;;;;;5.18;78.65;96471.19;5099191;23;5804;-68
2021/12/07 12:43:50;;;;;;;;;;;;;;;5.25;78.57;96474.78;5098822;23;5807;-68
2021/12/07 12:46:00;;;;;;;;;;;;;;;5.22;78.73;96461.22;5074134;23;5951;-68
2021/12/07 12:48:07;;;;;;;;;;;;;;;5.34;78.34;96459.88;5099562;23;5779;-68
2021/12/07 12:50:27;;;;;;;;;;;;;;;5.20;78.31;96447.44;5100932;23;5862;-67
2021/12/07 12:52:45;;;;;;;;;;;;;;;5.31;77.84;96449.69;5118095;23;5841;-68
2021/12/07 12:54:46;;;;;;;;;;;;;;;5.34;78.29;96444.16;5126403;23;5694;-68
2021/12/07 12:56:49;;;;;;;;;;;;;;;5.44;78.22;96449.19;5099651;23;5912;-68
2021/12/07 12:58:53;;;;;;;;;;;;;;;5.38;77.33;96436.75;5126591;23;5718;-68
2021/12/07 13:01:01;;;;;;;;;;;;;;;5.32;76.87;96434.78;5100242;23;5819;-68
2021/12/07 13:03:09;;;;;;;;;;;;;;;5.31;77.20;96433.97;5127098;23;5706;-68
2021/12/07 13:05:15;;;;;;;;;;;;;;;5.28;77.18;96431.69;5126566;23;5719;-68
2021/12/07 13:07:25;;;;;;;;;;;;;;;5.29;76.42;96427.28;5126212;23;5667;-68
2021/12/07 13:09:40;;;;;;;;;;;;;;;5.34;77.07;96419.75;5099010;23;5815;-68
2021/12/07 13:11:43;;;;;;;;;;;;;;;5.34;77.06;96414.50;5124847;23;5710;-67
2021/12/07 13:13:47;;;;;;;;;;;;;;;5.30;76.98;96403.50;5124317;23;5667;-68
2021/12/07 13:15:49;;;;;;;;;;;;;;;5.28;76.92;96397.63;5098882;23;5832;-68
2021/12/07 13:17:51;;;;;;;;;;;;;;;5.19;77.36;96403.88;5125305;23;5651;-68
2021/12/07 13:20:31;;;;;;;;;;;;;;;5.16;78.13;96398.97;5099306;23;5919;-68
2021/12/07 13:22:35;;;;;;;;;;;;;;;5.09;77.68;96400.63;5098921;23;5823;-68
2021/12/07 13:24:39;;;;;;;;;;;;;;;5.26;77.55;96399.59;5125893;23;5647;-68
2021/12/07 13:26:45;;;;;;;;;;;;;;;5.26;77.99;96396.97;5126793;23;5644;-68
2021/12/07 13:29:01;;;;;;;;;;;;;;;5.34;78.15;96386.47;5126949;23;7002;-68
2021/12/07 13:31:12;;;;;;;;;;;;;;;5.36;78.31;96394.97;5126468;23;5687;-68
2021/12/07 13:33:34;;;;;;;;;;;;;;;5.08;78.76;96386.72;5126868;23;5663;-68
2021/12/07 13:35:35;;;;;;;;;;;;;;;5.24;78.68;96376.19;5100289;23;5914;-68
2021/12/07 13:37:48;;;;;;;;;;;;;;;5.25;78.46;96382.25;5100080;23;6477;-68
2021/12/07 13:39:52;;;;;;;;;;;;;;;5.28;78.84;96373.22;5126615;23;5671;-68
2021/12/07 13:42:05;;;;;;;;;;;;;;;5.01;79.94;96364.81;5075859;23;5873;-68
2021/12/07 13:44:09;;;;;;;;;;;;;;;5.01;79.49;96359.56;5127145;23;5655;-68
2021/12/07 13:46:14;;;;;;;;;;;;;;;5.05;79.43;96353.00;5100933;23;5884;-68
2021/12/07 13:48:18;;;;;;;;;;;;;;;5.03;79.09;96347.13;5126058;23;5663;-67
2021/12/07 13:50:25;;;;;;;;;;;;;;;5.08;78.14;96346.59;5100736;23;5871;-67
2021/12/07 13:52:30;;;;;;;;;;;;;;;5.04;77.05;96333.03;5099162;23;5910;-67
2021/12/07 13:54:39;;;;;;;;;;;;;;;5.12;77.93;96337.44;5127082;23;5682;-68
2021/12/07 13:56:41;;;;;;;;;;;;;;;5.13;78.19;96342.50;5126789;23;5690;-68
2021/12/07 13:58:57;;;;;;;;;;;;;;;5.26;78.30;96340.16;5100607;23;5829;-69
2021/12/07 14:01:02;;;;;;;;;;;;;;;5.24;77.70;96333.44;5127235;23;5664;-68
2021/12/07 14:03:07;;;;;;;;;;;;;;;5.35;77.59;96329.63;5126671;23;5686;-68
2021/12/07 14:05:18;;;;;;;;;;;;;;;5.31;78.14;96328.31;5128317;23;5671;-69
2021/12/07 14:07:20;;;;;;;;;;;;;;;5.38;77.66;96321.41;5101537;23;5883;-69
2021/12/07 14:09:22;;;;;;;;;;;;;;;5.20;76.47;96319.84;5127752;23;5767;-69
2021/12/07 14:11:24;;;;;;;;;;;;;;;5.21;75.83;96321.50;5100474;23;5815;-68
2021/12/07 14:13:25;;;;;;;;;;;;;;;5.08;76.60;96315.97;5101325;23;5807;-68
2021/12/07 14:15:43;;;;;;;;;;;;;;;5.18;76.96;96313.97;5127891;23;5711;-70
2021/12/07 14:18:10;;;;;;;;;;;;;;;5.06;77.71;96304.84;5100115;23;5811;-68
2021/12/07 14:20:12;;;;;;;;;;;;;;;4.95;77.43;96298.19;5111678;23;5720;-68
2021/12/07 14:22:15;;;;;;;;;;;;;;;5.02;77.86;96294.91;5126439;23;5671;-68
2021/12/07 14:24:19;;;;;;;;;;;;;;;5.03;78.01;96286.88;5101143;23;5851;-68
2021/12/07 14:26:24;;;;;;;;;;;;;;;4.99;78.26;96282.97;5126803;23;6273;-68
2021/12/07 14:28:37;;;;;;;;;;;;;;;4.95;78.86;96276.41;5101487;23;5812;-69
2021/12/07 14:30:39;;;;;;;;;;;;;;;4.97;78.55;96274.44;5127282;23;5679;-68
2021/12/07 14:32:43;;;;;;;;;;;;;;;5.08;78.76;96275.84;5127949;23;5655;-69
2021/12/07 14:34:48;;;;;;;;;;;;;;;5.22;78.50;96275.97;5127273;23;5682;-69
2021/12/07 14:36:50;;;;;;;;;;;;;;;5.11;78.34;96270.28;5128175;23;6325;-67
2021/12/07 14:38:55;;;;;;;;;;;;;;;5.14;78.15;96276.00;5128104;23;5706;-70
2021/12/07 14:41:10;;;;;;;;;;;;;;;5.26;78.18;96268.56;5101952;23;6461;-69
2021/12/07 14:43:12;;;;;;;;;;;;;;;5.35;78.04;96261.47;5128065;23;5783;-69
2021/12/07 14:45:13;;;;;;;;;;;;;;;5.35;77.86;96261.47;5127583;23;5663;-69
2021/12/07 14:47:16;;;;;;;;;;;;;;;5.28;77.54;96255.28;5127008;23;5666;-69
2021/12/07 14:49:18;;;;;;;;;;;;;;;5.22;76.75;96254.19;5127384;23;5648;-69
2021/12/07 14:51:27;;;;;;;;;;;;;;;5.11;76.63;96254.56;5126785;23;5768;-68
2021/12/07 14:53:38;;;;;;;;;;;;;;;5.16;77.09;96247.81;5126916;23;5789;-69
2021/12/07 14:55:40;;;;;;;;;;;;;;;5.17;76.69;96246.00;5076509;23;5957;-70
2021/12/07 14:57:42;;;;;;;;;;;;;;;5.20;77.57;96236.00;5127092;23;5706;-69
2021/12/07 14:59:43;;;;;;;;;;;;;;;5.10;76.88;96229.38;5127363;23;5667;-68
2021/12/07 15:01:49;;;;;;;;;;;;;;;5.01;77.41;96239.06;5128362;23;5655;-69
2021/12/07 15:03:54;;;;;;;;;;;;;;;5.05;77.68;96223.81;5128475;23;5666;-70
2021/12/07 15:05:56;;;;;;;;;;;;;;;4.94;77.24;96217.97;5101465;23;5979;-70
2021/12/07 15:07:58;;;;;;;;;;;;;;;5.03;76.94;96207.44;5127192;23;5752;-69
2021/12/07 15:10:04;;;;;;;;;;;;;;;5.19;76.23;96210.78;5127442;23;5794;-70
2021/12/07 15:12:08;;;;;;;;;;;;;;;5.20;75.61;96212.41;5076748;23;5857;-70
2021/12/07 15:14:13;;;;;;;;;;;;;;;5.23;75.46;96212.09;5127150;23;5659;-69
2021/12/07 15:16:14;;;;;;;;;;;;;;;5.17;73.47;96197.03;5127561;23;5704;-70
2021/12/07 15:18:16;;;;;;;;;;;;;;;5.02;74.13;96198.78;5101553;23;5811;-70
2021/12/07 15:20:17;;;;;;;;;;;;;;;4.99;74.75;96196.50;5127240;23;5655;-70
2021/12/07 15:22:22;;;;;;;;;;;;;;;5.05;74.31;96195.81;5100850;23;5820;-70
2021/12/07 15:24:27;;;;;;;;;;;;;;;5.06;75.19;96181.72;5127505;23;5763;-69
2021/12/07 15:26:29;;;;;;;;;;;;;;;5.21;75.29;96187.03;5101155;23;5807;-70
2021/12/07 15:28:31;;;;;;;;;;;;;;;5.32;75.18;96183.97;5127378;23;5663;-70
2021/12/07 15:30:38;;;;;;;;;;;;;;;5.30;73.41;96174.69;5127518;23;5691;-70
2021/12/07 15:32:39;;;;;;;;;;;;;;;5.28;72.93;96181.91;5127585;23;5655;-69
2021/12/07 15:34:43;;;;;;;;;;;;;;;5.32;73.25;96181.38;5127991;23;5655;-71
2021/12/07 15:36:48;;;;;;;;;;;;;;;5.28;73.82;96172.22;5101852;23;5847;-69
2021/12/07 15:39:04;;;;;;;;;;;;;;;5.19;73.63;96174.09;5128116;23;5655;-70
2021/12/07 15:41:06;;;;;;;;;;;;;;;5.28;73.42;96181.91;5128202;23;5654;-69
2021/12/07 15:43:07;;;;;;;;;;;;;;;5.32;73.90;96183.97;5128341;23;5654;-69
2021/12/07 15:45:11;;;;;;;;;;;;;;;5.43;74.01;96175.72;5127728;23;5644;-70
2021/12/07 15:47:17;;;;;;;;;;;;;;;5.38;73.04;96178.06;5125926;23;5566;-70
2021/12/07 15:49:32;;;;;;;;;;;;;;;5.43;73.66;96175.72;5096600;23;7015;-69
2021/12/07 15:51:33;;;;;;;;;;;;;;;5.47;72.87;96178.81;5095528;23;6021;-69
2021/12/07 15:53:37;;;;;;;;;;;;;;;5.57;73.39;96170.72;5097766;23;5973;-70
2021/12/07 15:55:46;;;;;;;;;;;;;;;5.56;73.33;96175.16;5099167;23;5865;-70
2021/12/07 15:57:55;;;;;;;;;;;;;;;5.51;72.83;96169.59;5099959;23;5822;-69
2021/12/07 16:00:04;;;;;;;;;;;;;;;5.46;73.12;96178.00;5097933;23;5922;-69
2021/12/07 16:02:08;;;;;;;;;;;;;;;5.48;73.66;96172.56;5099980;23;5774;-69
2021/12/07 16:04:21;;;;;;;;;;;;;;;5.38;73.40;96164.94;5097419;23;5915;-70
2021/12/07 16:06:27;;;;;;;;;;;;;;;5.36;73.83;96163.50;5099475;23;5245;-70
2021/12/07 16:08:38;;;;;;;;;;;;;;;5.23;73.88;96164.09;5099326;23;7711;-68
2021/12/07 16:10:43;;;;;;;;;;;;;;;5.29;74.20;96147.66;5074388;23;5936;-70
2021/12/07 16:13:00;;;;;;;;;;;;;;;5.26;73.47;96154.06;5097909;23;5907;-70
2021/12/07 16:15:16;;;;;;;;;;;;;;;5.16;73.68;96152.66;5097677;23;5938;-70
2021/12/07 16:17:20;;;;;;;;;;;;;;;4.99;74.07;96149.38;5099696;23;5893;-70
2021/12/07 16:19:23;;;;;;;;;;;;;;;5.05;74.91;96147.84;5098889;23;5861;-70
2021/12/07 16:21:29;;;;;;;;;;;;;;;5.21;74.18;96159.03;5099144;23;5865;-70
2021/12/07 16:23:34;;;;;;;;;;;;;;;5.31;74.25;96147.47;5098978;23;5873;-70
2021/12/07 16:25:40;;;;;;;;;;;;;;;5.33;74.54;96148.94;5098949;23;5869;-70
2021/12/07 16:28:07;;;;;;;;;;;;;;;5.40;74.59;96146.41;5077297;23;5963;-70
2021/12/07 16:30:11;;;;;;;;;;;;;;;5.33;74.90;96148.94;5097645;23;6503;-70
2021/12/07 16:32:12;;;;;;;;;;;;;;;5.36;74.74;96145.16;5099600;23;5916;-71
2021/12/07 16:34:17;;;;;;;;;;;;;;;5.24;74.61;96139.50;5098594;23;5869;-70
2021/12/07 16:36:21;;;;;;;;;;;;;;;5.29;74.82;96131.94;5098663;23;5889;-70
2021/12/07 16:38:23;;;;;;;;;;;;;;;5.35;75.03;96127.81;5096753;23;5995;-70
2021/12/07 16:40:26;;;;;;;;;;;;;;;5.27;75.46;96131.28;5072414;23;6039;-70
2021/12/07 16:42:27;;;;;;;;;;;;;;;5.12;75.61;96120.78;5096595;23;5899;-70
2021/12/07 16:44:30;;;;;;;;;;;;;;;5.07;75.98;96117.03;5096012;23;5893;-69
2021/12/07 16:46:33;;;;;;;;;;;;;;;5.14;75.41;96123.22;5097095;23;5990;-70
2021/12/07 16:48:36;;;;;;;;;;;;;;;5.19;75.67;96116.44;5098404;23;5953;-70
2021/12/07 16:50:40;;;;;;;;;;;;;;;5.19;75.44;96121.69;5098622;23;5869;-70
2021/12/07 16:52:43;;;;;;;;;;;;;;;5.15;75.48;96120.41;5117196;23;5735;-70
2021/12/07 16:54:45;;;;;;;;;;;;;;;5.24;74.99;96119.38;5097932;23;5915;-71
2021/12/07 16:56:47;;;;;;;;;;;;;;;5.14;75.29;96118.78;5123887;23;5666;-70
2021/12/07 16:58:49;;;;;;;;;;;;;;;5.22;75.25;96115.28;5097886;23;5823;-70
2021/12/07 17:00:53;;;;;;;;;;;;;;;5.24;75.22;96118.56;5120832;23;5790;-70
2021/12/07 17:02:55;;;;;;;;;;;;;;;5.12;75.07;96117.34;5096990;23;5926;-70
2021/12/07 17:04:57;;;;;;;;;;;;;;;5.12;75.18;96110.28;5123222;23;5755;-71
2021/12/07 17:07:00;;;;;;;;;;;;;;;5.30;74.77;96106.53;5123802;23;5802;-70
2021/12/07 17:09:05;;;;;;;;;;;;;;;5.39;74.97;96097.63;5072969;23;5956;-70
2021/12/07 17:11:08;;;;;;;;;;;;;;;5.39;74.87;96100.22;5123964;23;5750;-70